URKZ AUTO 121100Z 31003MPS 10KM 29/05 Q1015 RMK QFE759